Springfield, OH (45502)

3:24 AM EST on February 09, 2016 (GMT -0500)
Snyder Park | | Change Station
CLOSE
Current Station
Personal Weather Station
Location: Springfield, OH
Elevation: 919 ft
Nearby Weather Stations
Active Advisory: Winter Weather Advisory

Elev 919 ft 39.93 °N, 83.85 °W | Updated 4 seconds ago

Overcast
Overcast
23.9 °F
Feels Like 17 °F
N
5.4
Wind Variable Wind from WSW
Gusts 8.1 mph

Today
High -- | Low -- °F
--% Chance of Precip.
Yesterday
High -- | Low -- °F
Precip. -- in
Pressure 29.68 in
Visibility 10.0 miles
Clouds Overcast 1000 ft
Windchill 17 °F
Dew Point 21 °F
Humidity 88%
Rainfall 0.00 in
Snow Depth Not available.
7:35 AM 6:03 PM
New Moon, 1% visible
METAR KSGH 090756Z AUTO 25010KT 10SM OVC010 M05/M06 A2965 RMK AO2 T10501061 SNE33 P0000 SLP050
Pressure 29.68 in
Visibility 10.0 miles
Clouds Overcast 1000 ft
Windchill 17 °F
Dew Point 21 °F
Humidity 88%
Rainfall 0.00 in
Snow Depth Not available.
7:35 AM 6:03 PM
New Moon, 1% visible
METAR KSGH 090756Z AUTO 25010KT 10SM OVC010 M05/M06 A2965 RMK AO2 T10501061 SNE33 P0000 SLP050

10-Day Weather Forecast

Almanac

Astronomy

Feb. 09, 2016 Rise Set
Actual Time
Civil Twilight
Nautical Twilight
Astronomical Twilight
Moon
Length of Visible Light
Length of Day
Tomorrow will be .
, % of the Moon is Illuminated

Today's Extremes

State Highs State Lows

Community

WunderPhotos

Upload Photos

1,891,571 photos uploaded!

WunderBlog® & News

Nearby

Air Quality

  Air Quality AQ Index Pollutant
Not available.

Snow Depth

Station Depth Elevation

Earthquake Activity

City Distance Mag. Time & Date
Minimum magnitude displayed is 2.5.

Coastal Water Temperatures

Place Temperature

Stations

Nearby Weather Stations

Station Location Temp. Windchill Dew Point Humidity Wind Precip. Elev Updated Type
                   

Watches & Warnings

Winter Weather Advisory
Issued: 12:52 AM EST Feb. 9, 2016 – National Weather Service

... Winter Weather Advisory remains in effect until 6 am EST
Wednesday...

* hazard types... snow.

* Accumulations... snow accumulation of 2 to 5 inches.

* Timing... occasional snow will occur through the morning hours
with accumulations of 1 to 4 inches through noon. Occasional
snow showers will then continue through tonight with another
inch or two possible.

* Impacts... travel difficulties are expected due to reduced
visibilities and snow accumulations.

Precautionary/preparedness actions...

Remember... a Winter Weather Advisory for snow means that periods
of snow will cause primarily travel difficulties. Be prepared for
snow covered roads and limited visibilities... and use caution
while driving. Stay tuned to NOAA Weather Radio or your favorite
source of information for the latest updates. Additional details
can also be found at www.Weather.Gov/iln as well as on our
facebook and twitter pages.